sensor_id;sensor_type;location;lat;lon;timestamp;P1;durP1;ratioP1;P2;durP2;ratioP2
10216;SDS011;5152;59.674;16.838;2022-09-09T00:01:47;1.70;;;1.60;;
10216;SDS011;5152;59.674;16.838;2022-09-09T00:04:19;1.43;;;1.33;;
10216;SDS011;5152;59.674;16.838;2022-09-09T00:06:59;1.93;;;1.63;;
10216;SDS011;5152;59.674;16.838;2022-09-09T00:09:30;1.90;;;1.70;;
10216;SDS011;5152;59.674;16.838;2022-09-09T00:11:58;4.23;;;1.70;;
10216;SDS011;5152;59.674;16.838;2022-09-09T00:14:31;1.50;;;1.40;;
10216;SDS011;5152;59.674;16.838;2022-09-09T00:17:02;3.57;;;1.50;;
10216;SDS011;5152;59.674;16.838;2022-09-09T00:19:36;1.90;;;1.53;;
10216;SDS011;5152;59.674;16.838;2022-09-09T00:22:12;1.63;;;1.53;;
10216;SDS011;5152;59.674;16.838;2022-09-09T00:24:41;1.70;;;1.60;;
10216;SDS011;5152;59.674;16.838;2022-09-09T00:27:11;1.53;;;1.43;;
10216;SDS011;5152;59.674;16.838;2022-09-09T00:29:43;2.03;;;1.60;;
10216;SDS011;5152;59.674;16.838;2022-09-09T00:32:12;1.87;;;1.60;;
10216;SDS011;5152;59.674;16.838;2022-09-09T00:34:44;1.63;;;1.53;;
10216;SDS011;5152;59.674;16.838;2022-09-09T00:37:13;1.70;;;1.60;;
10216;SDS011;5152;59.674;16.838;2022-09-09T00:39:42;1.63;;;1.53;;
10216;SDS011;5152;59.674;16.838;2022-09-09T00:42:13;1.77;;;1.50;;
10216;SDS011;5152;59.674;16.838;2022-09-09T00:44:45;1.83;;;1.33;;
10216;SDS011;5152;59.674;16.838;2022-09-09T00:50:17;2.03;;;1.50;;
10216;SDS011;5152;59.674;16.838;2022-09-09T00:52:57;1.97;;;1.30;;
10216;SDS011;5152;59.674;16.838;2022-09-09T00:55:32;1.70;;;1.50;;
10216;SDS011;5152;59.674;16.838;2022-09-09T00:58:00;2.47;;;1.60;;
10216;SDS011;5152;59.674;16.838;2022-09-09T01:00:27;3.47;;;1.73;;
10216;SDS011;5152;59.674;16.838;2022-09-09T01:03:18;2.50;;;1.73;;
10216;SDS011;5152;59.674;16.838;2022-09-09T01:05:51;2.17;;;1.60;;
10216;SDS011;5152;59.674;16.838;2022-09-09T01:08:35;1.53;;;1.33;;
10216;SDS011;5152;59.674;16.838;2022-09-09T01:11:12;2.57;;;1.90;;
10216;SDS011;5152;59.674;16.838;2022-09-09T01:13:43;1.70;;;1.40;;
10216;SDS011;5152;59.674;16.838;2022-09-09T01:16:12;2.63;;;1.63;;
10216;SDS011;5152;59.674;16.838;2022-09-09T01:18:40;1.80;;;1.37;;
10216;SDS011;5152;59.674;16.838;2022-09-09T01:21:15;3.27;;;1.70;;
10216;SDS011;5152;59.674;16.838;2022-09-09T01:23:48;2.67;;;1.80;;
10216;SDS011;5152;59.674;16.838;2022-09-09T01:26:26;2.50;;;1.70;;
10216;SDS011;5152;59.674;16.838;2022-09-09T01:28:53;2.80;;;2.13;;
10216;SDS011;5152;59.674;16.838;2022-09-09T01:31:21;4.60;;;1.60;;
10216;SDS011;5152;59.674;16.838;2022-09-09T01:33:49;2.00;;;1.50;;
10216;SDS011;5152;59.674;16.838;2022-09-09T01:36:21;1.97;;;1.50;;
10216;SDS011;5152;59.674;16.838;2022-09-09T01:38:52;3.63;;;1.40;;
10216;SDS011;5152;59.674;16.838;2022-09-09T01:41:19;2.07;;;1.50;;
10216;SDS011;5152;59.674;16.838;2022-09-09T01:43:48;4.10;;;1.77;;
10216;SDS011;5152;59.674;16.838;2022-09-09T01:46:16;2.03;;;1.40;;
10216;SDS011;5152;59.674;16.838;2022-09-09T01:48:43;2.10;;;1.60;;
10216;SDS011;5152;59.674;16.838;2022-09-09T01:51:11;2.47;;;1.60;;
10216;SDS011;5152;59.674;16.838;2022-09-09T01:53:38;2.60;;;1.30;;
10216;SDS011;5152;59.674;16.838;2022-09-09T01:56:10;3.27;;;1.63;;
10216;SDS011;5152;59.674;16.838;2022-09-09T01:58:46;1.43;;;1.33;;
10216;SDS011;5152;59.674;16.838;2022-09-09T02:01:22;1.73;;;1.40;;
10216;SDS011;5152;59.674;16.838;2022-09-09T02:03:53;2.53;;;1.40;;
10216;SDS011;5152;59.674;16.838;2022-09-09T02:06:25;1.47;;;1.37;;
10216;SDS011;5152;59.674;16.838;2022-09-09T02:08:54;3.07;;;1.50;;
10216;SDS011;5152;59.674;16.838;2022-09-09T02:11:23;1.77;;;1.23;;
10216;SDS011;5152;59.674;16.838;2022-09-09T02:13:52;2.37;;;1.30;;
10216;SDS011;5152;59.674;16.838;2022-09-09T02:16:21;2.37;;;1.30;;
10216;SDS011;5152;59.674;16.838;2022-09-09T02:18:51;2.20;;;1.30;;
10216;SDS011;5152;59.674;16.838;2022-09-09T02:21:20;1.60;;;1.13;;
10216;SDS011;5152;59.674;16.838;2022-09-09T02:23:47;2.10;;;1.13;;
10216;SDS011;5152;59.674;16.838;2022-09-09T02:26:17;1.73;;;1.30;;
10216;SDS011;5152;59.674;16.838;2022-09-09T02:28:47;1.70;;;1.30;;
10216;SDS011;5152;59.674;16.838;2022-09-09T02:31:17;1.53;;;1.30;;
10216;SDS011;5152;59.674;16.838;2022-09-09T02:33:47;1.50;;;1.30;;
10216;SDS011;5152;59.674;16.838;2022-09-09T02:36:17;2.17;;;1.47;;
10216;SDS011;5152;59.674;16.838;2022-09-09T02:38:45;1.80;;;1.30;;
10216;SDS011;5152;59.674;16.838;2022-09-09T02:41:15;2.00;;;1.10;;
10216;SDS011;5152;59.674;16.838;2022-09-09T02:43:42;1.97;;;1.37;;
10216;SDS011;5152;59.674;16.838;2022-09-09T02:46:12;1.30;;;1.20;;
10216;SDS011;5152;59.674;16.838;2022-09-09T02:48:51;1.40;;;1.17;;
10216;SDS011;5152;59.674;16.838;2022-09-09T02:51:23;1.00;;;0.90;;
10216;SDS011;5152;59.674;16.838;2022-09-09T02:53:59;2.40;;;1.17;;
10216;SDS011;5152;59.674;16.838;2022-09-09T02:56:31;1.20;;;1.10;;
10216;SDS011;5152;59.674;16.838;2022-09-09T02:58:59;1.20;;;1.07;;
10216;SDS011;5152;59.674;16.838;2022-09-09T03:01:31;1.17;;;0.93;;
10216;SDS011;5152;59.674;16.838;2022-09-09T03:03:57;1.50;;;1.40;;
10216;SDS011;5152;59.674;16.838;2022-09-09T03:06:24;0.90;;;0.90;;
10216;SDS011;5152;59.674;16.838;2022-09-09T03:08:52;1.73;;;1.00;;
10216;SDS011;5152;59.674;16.838;2022-09-09T03:11:19;1.33;;;1.10;;
10216;SDS011;5152;59.674;16.838;2022-09-09T03:13:45;1.17;;;1.00;;
10216;SDS011;5152;59.674;16.838;2022-09-09T03:16:14;1.03;;;0.93;;
10216;SDS011;5152;59.674;16.838;2022-09-09T03:18:42;1.00;;;1.00;;
10216;SDS011;5152;59.674;16.838;2022-09-09T03:21:11;1.13;;;1.00;;
10216;SDS011;5152;59.674;16.838;2022-09-09T03:23:37;1.30;;;1.03;;
10216;SDS011;5152;59.674;16.838;2022-09-09T03:26:04;1.03;;;0.93;;
10216;SDS011;5152;59.674;16.838;2022-09-09T03:28:31;0.97;;;0.97;;
10216;SDS011;5152;59.674;16.838;2022-09-09T03:30:58;0.80;;;0.80;;
10216;SDS011;5152;59.674;16.838;2022-09-09T03:33:26;0.77;;;0.77;;
10216;SDS011;5152;59.674;16.838;2022-09-09T03:35:54;0.80;;;0.80;;
10216;SDS011;5152;59.674;16.838;2022-09-09T03:38:21;1.10;;;1.00;;
10216;SDS011;5152;59.674;16.838;2022-09-09T03:40:49;0.90;;;0.90;;
10216;SDS011;5152;59.674;16.838;2022-09-09T03:43:16;2.83;;;1.10;;
10216;SDS011;5152;59.674;16.838;2022-09-09T03:45:44;1.10;;;1.00;;
10216;SDS011;5152;59.674;16.838;2022-09-09T03:48:12;0.90;;;0.90;;
10216;SDS011;5152;59.674;16.838;2022-09-09T03:50:39;0.93;;;0.90;;
10216;SDS011;5152;59.674;16.838;2022-09-09T03:53:07;0.90;;;0.90;;
10216;SDS011;5152;59.674;16.838;2022-09-09T03:55:33;0.90;;;0.90;;
10216;SDS011;5152;59.674;16.838;2022-09-09T03:58:00;2.30;;;0.93;;
10216;SDS011;5152;59.674;16.838;2022-09-09T04:00:27;0.80;;;0.80;;
10216;SDS011;5152;59.674;16.838;2022-09-09T04:02:55;0.83;;;0.70;;
10216;SDS011;5152;59.674;16.838;2022-09-09T04:05:22;0.87;;;0.87;;
10216;SDS011;5152;59.674;16.838;2022-09-09T04:07:49;0.90;;;0.90;;
10216;SDS011;5152;59.674;16.838;2022-09-09T04:10:17;0.80;;;0.80;;
10216;SDS011;5152;59.674;16.838;2022-09-09T04:12:46;0.83;;;0.80;;
10216;SDS011;5152;59.674;16.838;2022-09-09T04:15:12;1.07;;;0.97;;
10216;SDS011;5152;59.674;16.838;2022-09-09T04:17:39;0.70;;;0.70;;
10216;SDS011;5152;59.674;16.838;2022-09-09T04:20:06;2.30;;;1.00;;
10216;SDS011;5152;59.674;16.838;2022-09-09T04:22:36;0.90;;;0.90;;
10216;SDS011;5152;59.674;16.838;2022-09-09T04:25:04;0.80;;;0.80;;
10216;SDS011;5152;59.674;16.838;2022-09-09T04:27:33;0.90;;;0.90;;
10216;SDS011;5152;59.674;16.838;2022-09-09T04:29:59;0.90;;;0.90;;
10216;SDS011;5152;59.674;16.838;2022-09-09T04:32:26;0.90;;;0.80;;
10216;SDS011;5152;59.674;16.838;2022-09-09T04:34:53;0.80;;;0.80;;
10216;SDS011;5152;59.674;16.838;2022-09-09T04:37:19;4.63;;;0.90;;
10216;SDS011;5152;59.674;16.838;2022-09-09T04:39:46;3.17;;;1.10;;
10216;SDS011;5152;59.674;16.838;2022-09-09T04:42:13;1.07;;;0.77;;
10216;SDS011;5152;59.674;16.838;2022-09-09T04:44:42;0.80;;;0.80;;
10216;SDS011;5152;59.674;16.838;2022-09-09T04:47:09;0.80;;;0.80;;
10216;SDS011;5152;59.674;16.838;2022-09-09T04:49:36;1.57;;;0.90;;
10216;SDS011;5152;59.674;16.838;2022-09-09T04:52:03;2.03;;;0.80;;
10216;SDS011;5152;59.674;16.838;2022-09-09T04:54:30;1.90;;;0.77;;
10216;SDS011;5152;59.674;16.838;2022-09-09T04:56:57;1.57;;;0.70;;
10216;SDS011;5152;59.674;16.838;2022-09-09T04:59:23;1.93;;;0.80;;
10216;SDS011;5152;59.674;16.838;2022-09-09T05:01:51;1.50;;;0.80;;
10216;SDS011;5152;59.674;16.838;2022-09-09T05:04:20;2.20;;;1.13;;
10216;SDS011;5152;59.674;16.838;2022-09-09T05:06:47;1.40;;;0.90;;
10216;SDS011;5152;59.674;16.838;2022-09-09T05:09:13;1.40;;;1.17;;
10216;SDS011;5152;59.674;16.838;2022-09-09T05:11:40;1.33;;;0.90;;
10216;SDS011;5152;59.674;16.838;2022-09-09T05:14:07;2.07;;;1.00;;
10216;SDS011;5152;59.674;16.838;2022-09-09T05:16:36;2.57;;;1.03;;
10216;SDS011;5152;59.674;16.838;2022-09-09T05:19:04;1.17;;;0.90;;
10216;SDS011;5152;59.674;16.838;2022-09-09T05:21:35;0.80;;;0.80;;
10216;SDS011;5152;59.674;16.838;2022-09-09T05:24:03;0.80;;;0.80;;
10216;SDS011;5152;59.674;16.838;2022-09-09T05:26:30;0.97;;;0.80;;
10216;SDS011;5152;59.674;16.838;2022-09-09T05:28:57;1.37;;;1.10;;
10216;SDS011;5152;59.674;16.838;2022-09-09T05:31:25;4.10;;;0.97;;
10216;SDS011;5152;59.674;16.838;2022-09-09T05:33:54;1.17;;;0.90;;
10216;SDS011;5152;59.674;16.838;2022-09-09T05:36:22;3.60;;;1.03;;
10216;SDS011;5152;59.674;16.838;2022-09-09T05:38:49;2.00;;;1.00;;
10216;SDS011;5152;59.674;16.838;2022-09-09T05:41:16;4.13;;;1.40;;
10216;SDS011;5152;59.674;16.838;2022-09-09T05:43:43;2.37;;;0.87;;
10216;SDS011;5152;59.674;16.838;2022-09-09T05:46:12;1.53;;;0.83;;
10216;SDS011;5152;59.674;16.838;2022-09-09T05:48:40;4.37;;;1.03;;
10216;SDS011;5152;59.674;16.838;2022-09-09T05:51:08;2.27;;;0.70;;
10216;SDS011;5152;59.674;16.838;2022-09-09T05:53:38;3.37;;;0.90;;
10216;SDS011;5152;59.674;16.838;2022-09-09T05:56:06;1.37;;;0.83;;
10216;SDS011;5152;59.674;16.838;2022-09-09T05:58:35;1.70;;;1.00;;
10216;SDS011;5152;59.674;16.838;2022-09-09T06:01:03;1.17;;;0.97;;
10216;SDS011;5152;59.674;16.838;2022-09-09T06:03:31;0.90;;;0.90;;
10216;SDS011;5152;59.674;16.838;2022-09-09T06:05:59;1.90;;;0.90;;
10216;SDS011;5152;59.674;16.838;2022-09-09T06:08:26;1.67;;;1.00;;
10216;SDS011;5152;59.674;16.838;2022-09-09T06:11:00;1.50;;;0.70;;
10216;SDS011;5152;59.674;16.838;2022-09-09T06:13:28;1.73;;;0.80;;
10216;SDS011;5152;59.674;16.838;2022-09-09T06:15:55;1.63;;;0.90;;
10216;SDS011;5152;59.674;16.838;2022-09-09T06:18:23;2.27;;;1.13;;
10216;SDS011;5152;59.674;16.838;2022-09-09T06:20:54;0.87;;;0.87;;
10216;SDS011;5152;59.674;16.838;2022-09-09T06:23:21;0.70;;;0.70;;
10216;SDS011;5152;59.674;16.838;2022-09-09T06:25:48;1.23;;;0.80;;
10216;SDS011;5152;59.674;16.838;2022-09-09T06:28:17;1.40;;;0.80;;
10216;SDS011;5152;59.674;16.838;2022-09-09T06:30:44;1.07;;;0.90;;
10216;SDS011;5152;59.674;16.838;2022-09-09T06:33:11;2.43;;;1.00;;
10216;SDS011;5152;59.674;16.838;2022-09-09T06:35:37;0.77;;;0.77;;
10216;SDS011;5152;59.674;16.838;2022-09-09T06:38:04;1.17;;;0.83;;
10216;SDS011;5152;59.674;16.838;2022-09-09T06:40:31;2.40;;;1.10;;
10216;SDS011;5152;59.674;16.838;2022-09-09T06:42:59;1.97;;;1.00;;
10216;SDS011;5152;59.674;16.838;2022-09-09T06:45:28;1.10;;;0.93;;
10216;SDS011;5152;59.674;16.838;2022-09-09T06:47:55;1.03;;;0.90;;
10216;SDS011;5152;59.674;16.838;2022-09-09T06:50:22;0.80;;;0.77;;
10216;SDS011;5152;59.674;16.838;2022-09-09T06:52:49;2.00;;;0.97;;
10216;SDS011;5152;59.674;16.838;2022-09-09T06:55:16;1.20;;;0.87;;
10216;SDS011;5152;59.674;16.838;2022-09-09T06:57:44;1.30;;;0.83;;
10216;SDS011;5152;59.674;16.838;2022-09-09T07:00:11;2.33;;;0.80;;
10216;SDS011;5152;59.674;16.838;2022-09-09T07:02:40;1.10;;;0.67;;
10216;SDS011;5152;59.674;16.838;2022-09-09T07:05:07;1.53;;;0.93;;
10216;SDS011;5152;59.674;16.838;2022-09-09T07:07:34;3.07;;;0.87;;
10216;SDS011;5152;59.674;16.838;2022-09-09T07:10:02;0.87;;;0.87;;
10216;SDS011;5152;59.674;16.838;2022-09-09T07:12:29;0.77;;;0.77;;
10216;SDS011;5152;59.674;16.838;2022-09-09T07:14:56;0.77;;;0.77;;
10216;SDS011;5152;59.674;16.838;2022-09-09T07:17:23;1.20;;;0.80;;
10216;SDS011;5152;59.674;16.838;2022-09-09T07:19:51;1.40;;;0.90;;
10216;SDS011;5152;59.674;16.838;2022-09-09T07:22:19;2.47;;;0.73;;
10216;SDS011;5152;59.674;16.838;2022-09-09T07:24:46;0.70;;;0.67;;
10216;SDS011;5152;59.674;16.838;2022-09-09T07:27:14;0.90;;;0.80;;
10216;SDS011;5152;59.674;16.838;2022-09-09T07:29:41;1.40;;;0.67;;
10216;SDS011;5152;59.674;16.838;2022-09-09T07:32:08;1.70;;;0.57;;
10216;SDS011;5152;59.674;16.838;2022-09-09T07:34:34;1.50;;;0.83;;
10216;SDS011;5152;59.674;16.838;2022-09-09T07:37:03;1.40;;;0.67;;
10216;SDS011;5152;59.674;16.838;2022-09-09T07:39:30;1.60;;;0.73;;
10216;SDS011;5152;59.674;16.838;2022-09-09T07:41:57;1.13;;;0.80;;
10216;SDS011;5152;59.674;16.838;2022-09-09T07:44:24;1.27;;;0.63;;
10216;SDS011;5152;59.674;16.838;2022-09-09T07:46:51;1.03;;;0.80;;
10216;SDS011;5152;59.674;16.838;2022-09-09T07:49:18;1.37;;;0.60;;
10216;SDS011;5152;59.674;16.838;2022-09-09T07:51:46;1.33;;;0.60;;
10216;SDS011;5152;59.674;16.838;2022-09-09T07:54:16;0.70;;;0.70;;
10216;SDS011;5152;59.674;16.838;2022-09-09T07:56:45;0.80;;;0.67;;
10216;SDS011;5152;59.674;16.838;2022-09-09T07:59:13;5.00;;;1.20;;
10216;SDS011;5152;59.674;16.838;2022-09-09T08:01:40;2.13;;;0.93;;
10216;SDS011;5152;59.674;16.838;2022-09-09T08:04:09;3.77;;;1.63;;
10216;SDS011;5152;59.674;16.838;2022-09-09T08:06:41;2.47;;;0.87;;
10216;SDS011;5152;59.674;16.838;2022-09-09T08:09:09;1.97;;;1.00;;
10216;SDS011;5152;59.674;16.838;2022-09-09T08:11:37;2.47;;;0.80;;
10216;SDS011;5152;59.674;16.838;2022-09-09T08:14:05;3.50;;;0.67;;
10216;SDS011;5152;59.674;16.838;2022-09-09T08:16:34;1.57;;;0.80;;
10216;SDS011;5152;59.674;16.838;2022-09-09T08:19:02;0.70;;;0.60;;
10216;SDS011;5152;59.674;16.838;2022-09-09T08:21:30;0.90;;;0.60;;
10216;SDS011;5152;59.674;16.838;2022-09-09T08:23:58;0.63;;;0.63;;
10216;SDS011;5152;59.674;16.838;2022-09-09T08:26:27;2.27;;;1.07;;
10216;SDS011;5152;59.674;16.838;2022-09-09T08:28:56;1.60;;;0.60;;
10216;SDS011;5152;59.674;16.838;2022-09-09T08:31:25;1.77;;;0.80;;
10216;SDS011;5152;59.674;16.838;2022-09-09T08:33:53;1.20;;;0.80;;
10216;SDS011;5152;59.674;16.838;2022-09-09T08:36:21;1.47;;;0.73;;
10216;SDS011;5152;59.674;16.838;2022-09-09T08:38:51;1.10;;;0.73;;
10216;SDS011;5152;59.674;16.838;2022-09-09T08:41:27;0.70;;;0.50;;
10216;SDS011;5152;59.674;16.838;2022-09-09T08:44:09;1.50;;;0.83;;
10216;SDS011;5152;59.674;16.838;2022-09-09T08:46:42;1.53;;;0.40;;
10216;SDS011;5152;59.674;16.838;2022-09-09T08:49:19;4.40;;;0.63;;
10216;SDS011;5152;59.674;16.838;2022-09-09T08:52:06;1.70;;;0.67;;
10216;SDS011;5152;59.674;16.838;2022-09-09T08:54:36;3.73;;;0.60;;
10216;SDS011;5152;59.674;16.838;2022-09-09T08:57:03;1.73;;;0.80;;
10216;SDS011;5152;59.674;16.838;2022-09-09T08:59:32;3.63;;;0.90;;
10216;SDS011;5152;59.674;16.838;2022-09-09T09:02:00;1.33;;;0.30;;
10216;SDS011;5152;59.674;16.838;2022-09-09T09:04:32;1.27;;;0.57;;
10216;SDS011;5152;59.674;16.838;2022-09-09T09:07:11;1.47;;;0.67;;
10216;SDS011;5152;59.674;16.838;2022-09-09T09:09:47;1.03;;;0.80;;
10216;SDS011;5152;59.674;16.838;2022-09-09T09:12:24;1.67;;;0.80;;
10216;SDS011;5152;59.674;16.838;2022-09-09T09:14:54;1.67;;;0.70;;
10216;SDS011;5152;59.674;16.838;2022-09-09T09:17:23;2.97;;;0.87;;
10216;SDS011;5152;59.674;16.838;2022-09-09T09:19:52;0.43;;;0.43;;
10216;SDS011;5152;59.674;16.838;2022-09-09T09:22:19;1.27;;;0.60;;
10216;SDS011;5152;59.674;16.838;2022-09-09T09:24:51;1.53;;;0.67;;
10216;SDS011;5152;59.674;16.838;2022-09-09T09:27:21;2.07;;;0.80;;
10216;SDS011;5152;59.674;16.838;2022-09-09T09:29:55;1.47;;;0.60;;
10216;SDS011;5152;59.674;16.838;2022-09-09T09:32:23;4.20;;;0.90;;
10216;SDS011;5152;59.674;16.838;2022-09-09T09:34:51;2.07;;;0.90;;
10216;SDS011;5152;59.674;16.838;2022-09-09T09:37:22;0.93;;;0.70;;
10216;SDS011;5152;59.674;16.838;2022-09-09T09:39:53;2.43;;;0.80;;
10216;SDS011;5152;59.674;16.838;2022-09-09T09:42:20;0.97;;;0.70;;
10216;SDS011;5152;59.674;16.838;2022-09-09T09:44:48;1.03;;;0.87;;
10216;SDS011;5152;59.674;16.838;2022-09-09T09:47:17;2.10;;;0.67;;
10216;SDS011;5152;59.674;16.838;2022-09-09T09:49:50;1.50;;;0.80;;
10216;SDS011;5152;59.674;16.838;2022-09-09T09:52:19;1.53;;;1.03;;
10216;SDS011;5152;59.674;16.838;2022-09-09T09:54:48;1.53;;;0.77;;
10216;SDS011;5152;59.674;16.838;2022-09-09T09:57:15;1.37;;;0.90;;
10216;SDS011;5152;59.674;16.838;2022-09-09T09:59:42;1.80;;;0.60;;
10216;SDS011;5152;59.674;16.838;2022-09-09T10:02:13;4.93;;;0.90;;
10216;SDS011;5152;59.674;16.838;2022-09-09T10:04:43;1.53;;;0.80;;
10216;SDS011;5152;59.674;16.838;2022-09-09T10:07:10;1.43;;;0.77;;
10216;SDS011;5152;59.674;16.838;2022-09-09T10:09:37;1.10;;;0.60;;
10216;SDS011;5152;59.674;16.838;2022-09-09T10:12:06;0.40;;;0.40;;
10216;SDS011;5152;59.674;16.838;2022-09-09T10:14:43;1.90;;;0.60;;
10216;SDS011;5152;59.674;16.838;2022-09-09T10:17:15;1.50;;;0.73;;
10216;SDS011;5152;59.674;16.838;2022-09-09T10:19:51;0.67;;;0.57;;
10216;SDS011;5152;59.674;16.838;2022-09-09T10:22:25;0.93;;;0.70;;
10216;SDS011;5152;59.674;16.838;2022-09-09T10:25:18;0.93;;;0.40;;
10216;SDS011;5152;59.674;16.838;2022-09-09T10:28:10;0.50;;;0.50;;
10216;SDS011;5152;59.674;16.838;2022-09-09T10:30:51;3.60;;;0.73;;
10216;SDS011;5152;59.674;16.838;2022-09-09T10:33:22;0.73;;;0.60;;
10216;SDS011;5152;59.674;16.838;2022-09-09T10:35:57;0.60;;;0.60;;
10216;SDS011;5152;59.674;16.838;2022-09-09T10:38:28;2.67;;;0.70;;
10216;SDS011;5152;59.674;16.838;2022-09-09T10:41:09;7.63;;;0.70;;
10216;SDS011;5152;59.674;16.838;2022-09-09T10:43:46;1.53;;;0.60;;
10216;SDS011;5152;59.674;16.838;2022-09-09T10:46:34;3.10;;;0.70;;
10216;SDS011;5152;59.674;16.838;2022-09-09T10:49:09;1.53;;;0.60;;
10216;SDS011;5152;59.674;16.838;2022-09-09T10:51:45;3.87;;;0.67;;
10216;SDS011;5152;59.674;16.838;2022-09-09T10:54:23;1.87;;;0.63;;
10216;SDS011;5152;59.674;16.838;2022-09-09T10:56:58;1.90;;;0.43;;
10216;SDS011;5152;59.674;16.838;2022-09-09T10:59:27;3.97;;;0.70;;
10216;SDS011;5152;59.674;16.838;2022-09-09T11:01:57;4.07;;;1.07;;
10216;SDS011;5152;59.674;16.838;2022-09-09T11:04:27;0.50;;;0.50;;
10216;SDS011;5152;59.674;16.838;2022-09-09T11:06:59;2.20;;;0.70;;
10216;SDS011;5152;59.674;16.838;2022-09-09T11:09:30;0.53;;;0.50;;
10216;SDS011;5152;59.674;16.838;2022-09-09T11:12:00;0.73;;;0.47;;
10216;SDS011;5152;59.674;16.838;2022-09-09T11:14:28;1.40;;;0.57;;
10216;SDS011;5152;59.674;16.838;2022-09-09T11:16:58;0.40;;;0.33;;
10216;SDS011;5152;59.674;16.838;2022-09-09T11:19:28;0.53;;;0.53;;
10216;SDS011;5152;59.674;16.838;2022-09-09T11:22:00;3.33;;;0.60;;
10216;SDS011;5152;59.674;16.838;2022-09-09T11:24:31;0.57;;;0.50;;
10216;SDS011;5152;59.674;16.838;2022-09-09T11:27:01;0.63;;;0.33;;
10216;SDS011;5152;59.674;16.838;2022-09-09T11:35:40;2.33;;;0.70;;
10216;SDS011;5152;59.674;16.838;2022-09-09T11:38:18;0.40;;;0.40;;
10216;SDS011;5152;59.674;16.838;2022-09-09T11:40:47;2.00;;;0.47;;
10216;SDS011;5152;59.674;16.838;2022-09-09T11:43:21;0.80;;;0.60;;
10216;SDS011;5152;59.674;16.838;2022-09-09T11:45:51;0.50;;;0.50;;
10216;SDS011;5152;59.674;16.838;2022-09-09T11:48:25;1.90;;;0.60;;
10216;SDS011;5152;59.674;16.838;2022-09-09T11:50:58;0.33;;;0.30;;
10216;SDS011;5152;59.674;16.838;2022-09-09T11:53:27;0.77;;;0.60;;
10216;SDS011;5152;59.674;16.838;2022-09-09T11:56:04;2.00;;;0.53;;
10216;SDS011;5152;59.674;16.838;2022-09-09T12:01:33;1.10;;;0.40;;
10216;SDS011;5152;59.674;16.838;2022-09-09T12:06:59;0.63;;;0.47;;
10216;SDS011;5152;59.674;16.838;2022-09-09T12:09:29;1.83;;;0.77;;
10216;SDS011;5152;59.674;16.838;2022-09-09T12:14:55;1.33;;;0.80;;
10216;SDS011;5152;59.674;16.838;2022-09-09T12:17:24;7.07;;;0.87;;
10216;SDS011;5152;59.674;16.838;2022-09-09T12:19:59;3.13;;;0.60;;
10216;SDS011;5152;59.674;16.838;2022-09-09T12:22:32;0.60;;;0.27;;
10216;SDS011;5152;59.674;16.838;2022-09-09T12:25:08;1.00;;;0.60;;
10216;SDS011;5152;59.674;16.838;2022-09-09T12:27:42;1.37;;;0.67;;
10216;SDS011;5152;59.674;16.838;2022-09-09T12:30:11;0.60;;;0.60;;
10216;SDS011;5152;59.674;16.838;2022-09-09T12:32:40;0.43;;;0.43;;
10216;SDS011;5152;59.674;16.838;2022-09-09T12:35:10;0.73;;;0.40;;
10216;SDS011;5152;59.674;16.838;2022-09-09T12:37:39;0.67;;;0.63;;
10216;SDS011;5152;59.674;16.838;2022-09-09T12:40:18;4.33;;;1.00;;
10216;SDS011;5152;59.674;16.838;2022-09-09T12:42:46;1.90;;;0.43;;
10216;SDS011;5152;59.674;16.838;2022-09-09T12:45:17;1.37;;;0.60;;
10216;SDS011;5152;59.674;16.838;2022-09-09T12:47:45;0.40;;;0.40;;
10216;SDS011;5152;59.674;16.838;2022-09-09T12:50:17;1.13;;;0.63;;
10216;SDS011;5152;59.674;16.838;2022-09-09T12:52:46;2.53;;;0.73;;
10216;SDS011;5152;59.674;16.838;2022-09-09T12:55:17;1.73;;;0.53;;
10216;SDS011;5152;59.674;16.838;2022-09-09T12:57:47;0.77;;;0.50;;
10216;SDS011;5152;59.674;16.838;2022-09-09T13:00:16;2.07;;;0.90;;
10216;SDS011;5152;59.674;16.838;2022-09-09T13:02:46;4.53;;;0.50;;
10216;SDS011;5152;59.674;16.838;2022-09-09T13:05:16;1.47;;;0.70;;
10216;SDS011;5152;59.674;16.838;2022-09-09T13:07:45;0.63;;;0.57;;
10216;SDS011;5152;59.674;16.838;2022-09-09T13:10:12;0.30;;;0.27;;
10216;SDS011;5152;59.674;16.838;2022-09-09T13:12:42;0.63;;;0.60;;
10216;SDS011;5152;59.674;16.838;2022-09-09T13:15:11;2.93;;;0.63;;
10216;SDS011;5152;59.674;16.838;2022-09-09T13:17:48;4.17;;;0.77;;
10216;SDS011;5152;59.674;16.838;2022-09-09T13:20:17;1.03;;;0.77;;
10216;SDS011;5152;59.674;16.838;2022-09-09T13:22:44;3.90;;;0.57;;
10216;SDS011;5152;59.674;16.838;2022-09-09T13:25:18;2.53;;;0.70;;
10216;SDS011;5152;59.674;16.838;2022-09-09T13:27:53;0.47;;;0.47;;
10216;SDS011;5152;59.674;16.838;2022-09-09T13:30:25;0.97;;;0.63;;
10216;SDS011;5152;59.674;16.838;2022-09-09T13:33:00;1.33;;;0.60;;
10216;SDS011;5152;59.674;16.838;2022-09-09T13:35:28;1.27;;;0.60;;
10216;SDS011;5152;59.674;16.838;2022-09-09T13:37:55;0.50;;;0.37;;
10216;SDS011;5152;59.674;16.838;2022-09-09T13:40:23;0.53;;;0.43;;
10216;SDS011;5152;59.674;16.838;2022-09-09T13:42:53;1.97;;;1.07;;
10216;SDS011;5152;59.674;16.838;2022-09-09T13:45:22;3.70;;;0.77;;
10216;SDS011;5152;59.674;16.838;2022-09-09T13:47:51;3.93;;;0.70;;
10216;SDS011;5152;59.674;16.838;2022-09-09T13:50:20;2.10;;;0.60;;
10216;SDS011;5152;59.674;16.838;2022-09-09T13:52:48;0.57;;;0.40;;
10216;SDS011;5152;59.674;16.838;2022-09-09T13:55:16;5.47;;;0.60;;
10216;SDS011;5152;59.674;16.838;2022-09-09T13:57:50;1.80;;;0.77;;
10216;SDS011;5152;59.674;16.838;2022-09-09T14:00:18;0.90;;;0.63;;
10216;SDS011;5152;59.674;16.838;2022-09-09T14:02:45;2.90;;;0.87;;
10216;SDS011;5152;59.674;16.838;2022-09-09T14:05:12;0.70;;;0.57;;
10216;SDS011;5152;59.674;16.838;2022-09-09T14:07:40;1.47;;;0.70;;
10216;SDS011;5152;59.674;16.838;2022-09-09T14:10:07;7.83;;;0.90;;
10216;SDS011;5152;59.674;16.838;2022-09-09T14:12:34;3.97;;;0.80;;
10216;SDS011;5152;59.674;16.838;2022-09-09T14:15:01;2.97;;;0.67;;
10216;SDS011;5152;59.674;16.838;2022-09-09T14:17:30;3.03;;;0.90;;
10216;SDS011;5152;59.674;16.838;2022-09-09T14:19:57;2.30;;;1.00;;
10216;SDS011;5152;59.674;16.838;2022-09-09T14:22:24;2.93;;;1.07;;
10216;SDS011;5152;59.674;16.838;2022-09-09T14:24:51;8.27;;;0.90;;
10216;SDS011;5152;59.674;16.838;2022-09-09T14:27:18;3.50;;;0.90;;
10216;SDS011;5152;59.674;16.838;2022-09-09T14:29:44;3.97;;;1.20;;
10216;SDS011;5152;59.674;16.838;2022-09-09T14:32:11;2.83;;;0.90;;
10216;SDS011;5152;59.674;16.838;2022-09-09T14:34:40;3.63;;;0.70;;
10216;SDS011;5152;59.674;16.838;2022-09-09T14:37:06;3.17;;;0.77;;
10216;SDS011;5152;59.674;16.838;2022-09-09T14:39:33;0.63;;;0.60;;
10216;SDS011;5152;59.674;16.838;2022-09-09T14:42:00;0.50;;;0.50;;
10216;SDS011;5152;59.674;16.838;2022-09-09T14:44:27;1.97;;;0.50;;
10216;SDS011;5152;59.674;16.838;2022-09-09T14:46:54;3.60;;;0.90;;
10216;SDS011;5152;59.674;16.838;2022-09-09T14:49:20;3.33;;;0.90;;
10216;SDS011;5152;59.674;16.838;2022-09-09T14:51:49;1.60;;;0.90;;
10216;SDS011;5152;59.674;16.838;2022-09-09T14:54:15;0.90;;;0.73;;
10216;SDS011;5152;59.674;16.838;2022-09-09T14:56:45;1.23;;;1.03;;
10216;SDS011;5152;59.674;16.838;2022-09-09T14:59:12;3.73;;;0.80;;
10216;SDS011;5152;59.674;16.838;2022-09-09T15:01:44;0.97;;;0.83;;
10216;SDS011;5152;59.674;16.838;2022-09-09T15:04:12;0.93;;;0.70;;
10216;SDS011;5152;59.674;16.838;2022-09-09T15:06:40;1.80;;;1.03;;
10216;SDS011;5152;59.674;16.838;2022-09-09T15:09:10;5.60;;;1.00;;
10216;SDS011;5152;59.674;16.838;2022-09-09T15:11:37;2.17;;;0.80;;
10216;SDS011;5152;59.674;16.838;2022-09-09T15:14:04;1.17;;;0.80;;
10216;SDS011;5152;59.674;16.838;2022-09-09T15:16:31;3.33;;;0.80;;
10216;SDS011;5152;59.674;16.838;2022-09-09T15:18:58;0.97;;;0.80;;
10216;SDS011;5152;59.674;16.838;2022-09-09T15:21:27;2.57;;;0.70;;